createdAt,value
2022-08-01T00:00:09.380Z,101335.28
2022-08-01T00:02:39.256Z,101340.47
2022-08-01T00:05:07.277Z,101329.38
2022-08-01T00:07:37.994Z,101333.56
2022-08-01T00:10:06.452Z,101337.41
2022-08-01T00:12:33.398Z,101333.94
2022-08-01T00:15:00.150Z,101325.22
2022-08-01T00:17:27.086Z,101331.72
2022-08-01T00:19:53.855Z,101343.38
2022-08-01T00:22:20.526Z,101332.19
2022-08-01T00:24:47.278Z,101330.59
2022-08-01T00:27:13.973Z,101313.06
2022-08-01T00:30:09.872Z,101319.00
2022-08-01T00:32:27.285Z,101321.34
2022-08-01T00:34:54.007Z,101314.16
2022-08-01T00:37:20.739Z,101317.50
2022-08-01T00:39:47.436Z,101318.63
2022-08-01T00:42:14.551Z,101305.88
2022-08-01T00:44:41.751Z,101313.25
2022-08-01T00:47:08.820Z,101313.56
2022-08-01T00:49:36.083Z,101313.25
2022-08-01T00:52:05.947Z,101308.28
2022-08-01T00:54:33.531Z,101310.53
2022-08-01T00:57:00.467Z,101298.91
2022-08-01T00:59:27.813Z,101300.47
2022-08-01T01:01:55.225Z,101300.06
2022-08-01T01:04:22.932Z,101300.91
2022-08-01T01:07:01.426Z,101295.69
2022-08-01T01:09:50.810Z,101298.25
2022-08-01T01:12:41.813Z,101267.31
2022-08-01T01:15:27.707Z,101288.59
2022-08-01T01:18:04.104Z,101293.44
2022-08-01T01:20:49.919Z,101278.38
2022-08-01T01:23:29.848Z,101288.63
2022-08-01T01:26:16.689Z,101302.44
2022-08-01T01:29:05.088Z,101287.25
2022-08-01T01:31:50.130Z,101282.97
2022-08-01T01:34:19.730Z,101284.59
2022-08-01T01:36:48.655Z,101267.56
2022-08-01T01:39:17.845Z,101230.06
2022-08-01T01:41:47.985Z,101250.84
2022-08-01T01:44:17.373Z,101258.69
2022-08-01T01:46:44.585Z,101260.63
2022-08-01T01:49:12.935Z,101268.53
2022-08-01T01:51:43.323Z,101253.94
2022-08-01T01:54:33.973Z,101255.72
2022-08-01T01:57:02.966Z,101258.94
2022-08-01T01:59:32.949Z,101248.72
2022-08-01T02:02:06.495Z,101248.09
2022-08-01T02:04:37.040Z,101255.94
2022-08-01T02:07:05.042Z,101251.94
2022-08-01T02:09:33.074Z,101241.94
2022-08-01T02:12:08.013Z,101241.94
2022-08-01T02:14:36.587Z,101237.19
2022-08-01T02:17:05.126Z,101235.72
2022-08-01T02:19:36.993Z,101219.31
2022-08-01T02:22:27.240Z,101251.19
2022-08-01T02:25:03.071Z,101254.47
2022-08-01T02:27:46.940Z,101238.41
2022-08-01T02:30:15.171Z,101247.19
2022-08-01T02:32:52.402Z,101246.56
2022-08-01T02:35:27.578Z,101249.56
2022-08-01T02:37:56.507Z,101239.78
2022-08-01T02:40:25.041Z,101226.25
2022-08-01T02:42:53.916Z,101235.56
2022-08-01T02:45:23.579Z,101240.84
2022-08-01T02:47:52.445Z,101226.00
2022-08-01T02:50:19.834Z,101229.41
2022-08-01T02:52:51.265Z,101234.16
2022-08-01T02:55:20.717Z,101217.00
2022-08-01T02:57:52.529Z,101233.63
2022-08-01T03:00:20.418Z,101218.47
2022-08-01T03:02:55.867Z,101225.00
2022-08-01T03:05:24.450Z,101230.53
2022-08-01T03:07:53.994Z,101224.63
2022-08-01T03:10:22.373Z,101228.13
2022-08-01T03:12:51.272Z,101218.50
2022-08-01T03:15:19.811Z,101204.88
2022-08-01T03:17:49.128Z,101222.38
2022-08-01T03:20:17.689Z,101214.75
2022-08-01T03:22:46.935Z,101218.34
2022-08-01T03:25:16.366Z,101222.91
2022-08-01T03:27:52.802Z,101220.50
2022-08-01T03:30:19.544Z,101181.44
2022-08-01T03:32:47.253Z,101208.63
2022-08-01T03:35:14.275Z,101203.19
2022-08-01T03:38:13.478Z,101195.03
2022-08-01T03:40:49.914Z,101202.78
2022-08-01T03:44:18.350Z,101198.97
2022-08-01T03:46:48.503Z,101194.09
2022-08-01T03:49:30.006Z,101176.63
2022-08-01T03:51:58.346Z,101179.88
2022-08-01T03:54:29.318Z,101181.31
2022-08-01T03:56:56.312Z,101174.44
2022-08-01T03:59:23.703Z,101182.97
2022-08-01T04:01:51.159Z,101182.00
2022-08-01T04:04:18.246Z,101184.81
2022-08-01T04:06:46.007Z,101157.59
2022-08-01T04:09:15.942Z,101172.41
2022-08-01T04:11:42.859Z,101185.03
2022-08-01T04:14:09.586Z,101170.25
2022-08-01T04:16:36.517Z,101177.88
2022-08-01T04:19:03.728Z,101164.06
2022-08-01T04:21:33.623Z,101149.81
2022-08-01T04:24:06.221Z,101173.13
2022-08-01T04:26:36.179Z,101126.13
2022-08-01T04:29:06.069Z,101178.31
2022-08-01T04:31:35.207Z,101171.91
2022-08-01T04:34:04.445Z,101169.19
2022-08-01T04:36:34.276Z,101165.19
2022-08-01T04:39:03.192Z,101175.34
2022-08-01T04:41:31.509Z,101162.22
2022-08-01T04:44:00.400Z,101161.44
2022-08-01T04:46:28.631Z,101162.47
2022-08-01T04:48:56.098Z,101160.41
2022-08-01T04:51:23.511Z,101162.28
2022-08-01T04:53:52.127Z,101165.59
2022-08-01T04:56:22.233Z,101143.47
2022-08-01T04:58:49.230Z,101147.31
2022-08-01T05:01:16.699Z,101140.31
2022-08-01T05:03:43.610Z,101154.03
2022-08-01T05:06:10.282Z,101153.19
2022-08-01T05:08:37.274Z,101154.97
2022-08-01T05:11:04.446Z,101141.84
2022-08-01T05:13:31.597Z,101152.25
2022-08-01T05:15:58.345Z,101143.38
2022-08-01T05:18:28.440Z,101150.94
2022-08-01T05:20:56.055Z,101145.94
2022-08-01T05:23:33.433Z,101142.78
2022-08-01T05:26:10.177Z,101144.00
2022-08-01T05:28:36.910Z,101154.22
2022-08-01T05:31:04.713Z,101131.16
2022-08-01T05:33:31.425Z,101141.34
2022-08-01T05:35:58.095Z,101092.91
2022-08-01T05:38:24.749Z,101115.16
2022-08-01T05:40:51.684Z,101131.78
2022-08-01T05:43:18.490Z,101133.66
2022-08-01T05:45:47.073Z,101127.59
2022-08-01T05:48:13.903Z,101134.19
2022-08-01T05:50:41.459Z,101128.63
2022-08-01T05:53:08.158Z,101067.59
2022-08-01T05:55:36.281Z,101099.75
2022-08-01T05:58:03.458Z,101119.25
2022-08-01T06:00:30.324Z,101124.84
2022-08-01T06:02:56.961Z,101128.09
2022-08-01T06:05:23.717Z,101127.00
2022-08-01T06:07:50.460Z,101108.69
2022-08-01T06:10:17.207Z,101111.00
2022-08-01T06:12:43.940Z,101079.44
2022-08-01T06:15:11.108Z,101104.63
2022-08-01T06:17:37.959Z,101091.13
2022-08-01T06:20:10.980Z,101097.41
2022-08-01T06:22:37.819Z,101126.91
2022-08-01T06:25:05.445Z,101081.25
2022-08-01T06:27:35.398Z,101123.84
2022-08-01T06:30:02.159Z,101073.09
2022-08-01T06:32:28.896Z,101067.78
2022-08-01T06:34:56.437Z,101113.13
2022-08-01T06:37:23.747Z,101112.00
2022-08-01T06:39:51.099Z,101095.84
2022-08-01T06:42:18.759Z,101082.03
2022-08-01T06:44:46.255Z,101092.34
2022-08-01T06:47:13.106Z,101058.44
2022-08-01T06:49:39.983Z,101061.00
2022-08-01T06:52:07.122Z,101051.31
2022-08-01T06:54:34.187Z,101070.84
2022-08-01T06:57:00.919Z,101075.19
2022-08-01T06:59:27.777Z,101093.88
2022-08-01T07:01:54.496Z,101062.97
2022-08-01T07:04:21.271Z,101077.53
2022-08-01T07:06:47.987Z,101074.63
2022-08-01T07:09:14.899Z,101072.31
2022-08-01T07:11:41.866Z,101064.38
2022-08-01T07:14:08.800Z,101081.31
2022-08-01T07:16:35.597Z,101043.56
2022-08-01T07:19:02.343Z,101045.53
2022-08-01T07:21:40.222Z,101085.13
2022-08-01T07:24:15.045Z,101057.84
2022-08-01T07:26:52.525Z,101079.31
2022-08-01T07:29:24.484Z,101063.44
2022-08-01T07:31:54.052Z,101105.63
2022-08-01T07:34:21.169Z,101072.78
2022-08-01T07:36:47.966Z,101072.75
2022-08-01T07:39:14.764Z,101079.81
2022-08-01T07:42:06.074Z,101063.94
2022-08-01T07:44:29.221Z,101060.59
2022-08-01T07:46:56.243Z,101062.13
2022-08-01T07:49:23.176Z,101033.75
2022-08-01T07:52:02.417Z,101060.81
2022-08-01T07:54:37.269Z,101086.63
2022-08-01T07:57:04.543Z,101091.31
2022-08-01T07:59:31.949Z,101045.38
2022-08-01T08:01:59.225Z,101050.66
2022-08-01T08:04:27.214Z,101074.69
2022-08-01T08:06:54.659Z,101088.06
2022-08-01T08:09:21.467Z,101037.28
2022-08-01T08:11:48.593Z,101049.19
2022-08-01T08:14:17.490Z,101036.56
2022-08-01T08:16:44.993Z,101049.28
2022-08-01T08:19:12.356Z,101063.19
2022-08-01T08:21:39.483Z,101053.97
2022-08-01T08:24:26.870Z,101018.28
2022-08-01T08:27:01.472Z,101072.28
2022-08-01T08:29:30.841Z,101058.72
2022-08-01T08:32:06.146Z,101065.53
2022-08-01T08:34:34.932Z,101054.69
2022-08-01T08:37:01.666Z,101053.81
2022-08-01T08:39:30.633Z,101026.13
2022-08-01T08:42:03.457Z,101062.28
2022-08-01T08:44:30.229Z,101057.06
2022-08-01T08:46:59.317Z,100994.22
2022-08-01T08:49:35.507Z,101025.91
2022-08-01T08:52:05.417Z,101006.22
2022-08-01T08:54:33.456Z,101032.69
2022-08-01T08:57:01.720Z,101032.66
2022-08-01T08:59:29.592Z,101033.63
2022-08-01T09:01:57.198Z,101008.25
2022-08-01T09:04:26.385Z,100997.69
2022-08-01T09:06:55.683Z,101025.56
2022-08-01T09:09:23.338Z,100989.00
2022-08-01T09:11:57.058Z,101000.59
2022-08-01T09:14:28.105Z,101015.22
2022-08-01T09:17:11.403Z,101001.44
2022-08-01T09:19:44.806Z,101016.44
2022-08-01T09:22:14.026Z,100997.50
2022-08-01T09:24:41.853Z,101016.78
2022-08-01T09:27:25.109Z,101026.34
2022-08-01T09:30:01.217Z,101027.34
2022-08-01T09:32:36.439Z,101019.88
2022-08-01T09:35:30.625Z,101021.41
2022-08-01T09:38:19.418Z,100985.81
2022-08-01T09:40:49.431Z,100979.19
2022-08-01T09:43:16.518Z,100969.28
2022-08-01T09:45:45.618Z,100981.75
2022-08-01T09:48:13.261Z,101015.84
2022-08-01T09:50:45.117Z,100998.28
2022-08-01T09:53:28.679Z,101010.28
2022-08-01T09:56:10.620Z,101009.59
2022-08-01T09:59:02.483Z,100970.25
2022-08-01T10:01:47.457Z,101005.06
2022-08-01T10:04:20.949Z,100990.50
2022-08-01T10:06:53.808Z,100981.09
2022-08-01T10:09:39.836Z,100988.81
2022-08-01T10:12:07.977Z,100994.28
2022-08-01T10:14:37.196Z,100980.00
2022-08-01T10:17:05.739Z,100963.53
2022-08-01T10:19:33.795Z,101013.66
2022-08-01T10:22:01.673Z,100962.06
2022-08-01T10:24:31.230Z,100984.47
2022-08-01T10:27:12.157Z,100926.75
2022-08-01T10:30:15.490Z,100990.88
2022-08-01T10:32:50.967Z,100958.06
2022-08-01T10:35:45.660Z,100960.06
2022-08-01T10:38:13.364Z,100975.19
2022-08-01T10:40:41.554Z,100955.81
2022-08-01T10:43:11.817Z,100966.06
2022-08-01T10:45:39.610Z,100968.47
2022-08-01T10:48:21.901Z,100965.13
2022-08-01T10:50:53.902Z,100895.66
2022-08-01T10:53:24.209Z,100913.63
2022-08-01T10:55:59.313Z,100950.88
2022-08-01T10:58:39.638Z,100911.34
2022-08-01T11:01:25.598Z,100950.03
2022-08-01T11:04:04.343Z,100942.13
2022-08-01T11:06:34.052Z,100943.47
2022-08-01T11:09:36.395Z,100927.19
2022-08-01T11:12:16.037Z,100931.53
2022-08-01T11:15:02.353Z,100937.44
2022-08-01T11:17:42.155Z,100906.94
2022-08-01T11:20:17.345Z,100932.88
2022-08-01T11:23:03.429Z,100952.88
2022-08-01T11:26:06.787Z,100950.81
2022-08-01T11:28:33.091Z,100957.59
2022-08-01T11:31:14.062Z,100944.53
2022-08-01T11:33:46.080Z,100944.19
2022-08-01T11:36:14.593Z,100933.97
2022-08-01T11:38:49.202Z,100929.41
2022-08-01T11:41:37.737Z,100934.22
2022-08-01T11:44:20.907Z,100923.13
2022-08-01T11:47:09.007Z,100933.78
2022-08-01T11:49:40.531Z,100926.72
2022-08-01T11:52:25.665Z,100936.78
2022-08-01T11:54:56.957Z,100924.28
2022-08-01T11:57:24.276Z,100924.31
2022-08-01T12:00:04.429Z,100911.56
2022-08-01T12:02:35.063Z,100894.63
2022-08-01T12:05:13.994Z,100913.63
2022-08-01T12:07:43.089Z,100920.19
2022-08-01T12:10:12.218Z,100916.81
2022-08-01T12:12:45.351Z,100900.56
2022-08-01T12:15:12.883Z,100897.56
2022-08-01T12:17:41.013Z,100895.47
2022-08-01T12:20:13.619Z,100900.97
2022-08-01T12:22:40.241Z,100891.03
2022-08-01T12:25:08.447Z,100889.47
2022-08-01T12:27:35.572Z,100885.13
2022-08-01T12:30:02.518Z,100882.66
2022-08-01T12:32:32.749Z,100880.50
2022-08-01T12:35:04.874Z,100879.53
2022-08-01T12:37:31.669Z,100872.75
2022-08-01T12:39:59.359Z,100873.31
2022-08-01T12:42:26.106Z,100866.97
2022-08-01T12:44:53.268Z,100870.31
2022-08-01T12:47:21.413Z,100863.44
2022-08-01T12:49:48.267Z,100868.38
2022-08-01T12:52:15.565Z,100864.53
2022-08-01T12:55:01.182Z,100855.00
2022-08-01T12:57:27.732Z,100858.03
2022-08-01T12:59:54.345Z,100849.53
2022-08-01T13:02:20.906Z,100848.94
2022-08-01T13:04:51.913Z,100840.97
2022-08-01T13:07:18.940Z,100848.47
2022-08-01T13:09:52.047Z,100843.75
2022-08-01T13:12:18.625Z,100828.59
2022-08-01T13:14:45.235Z,100821.44
2022-08-01T13:17:14.006Z,100833.53
2022-08-01T13:19:42.998Z,100824.06
2022-08-01T13:22:09.879Z,100822.56
2022-08-01T13:24:37.020Z,100813.50
2022-08-01T13:27:04.946Z,100810.94
2022-08-01T13:29:39.532Z,100803.50
2022-08-01T13:32:28.790Z,100802.63
2022-08-01T13:35:10.184Z,100794.72
2022-08-01T13:41:06.395Z,100790.78
2022-08-01T13:43:33.371Z,100788.28
2022-08-01T13:46:19.885Z,100779.78
2022-08-01T13:48:46.854Z,100780.78
2022-08-01T13:51:22.117Z,100778.53
2022-08-01T13:53:49.100Z,100771.19
2022-08-01T13:56:17.351Z,100772.72
2022-08-01T13:58:44.358Z,100783.47
2022-08-01T14:01:11.378Z,100762.78
2022-08-01T14:03:37.993Z,100764.63
2022-08-01T14:06:04.935Z,100761.16
2022-08-01T14:08:31.555Z,100760.63
2022-08-01T14:10:59.698Z,100750.78
2022-08-01T14:13:29.691Z,100742.78
2022-08-01T14:15:58.842Z,100743.91
2022-08-01T14:18:25.979Z,100739.66
2022-08-01T14:20:54.891Z,100732.47
2022-08-01T14:23:24.949Z,100732.06
2022-08-01T14:26:00.676Z,100727.69
2022-08-01T14:28:32.635Z,100717.50
2022-08-01T14:30:59.351Z,100726.34
2022-08-01T14:33:26.091Z,100713.19
2022-08-01T14:36:01.768Z,100713.78
2022-08-01T14:38:34.318Z,100680.53
2022-08-01T14:41:01.738Z,100715.00
2022-08-01T14:43:33.032Z,100711.31
2022-08-01T14:46:01.129Z,100706.31
2022-08-01T14:48:27.797Z,100702.09
2022-08-01T14:50:54.366Z,100699.44
2022-08-01T14:53:21.215Z,100693.50
2022-08-01T14:55:47.787Z,100686.88
2022-08-01T14:58:14.427Z,100687.72
2022-08-01T15:00:41.330Z,100689.53
2022-08-01T15:03:07.936Z,100672.81
2022-08-01T15:05:34.499Z,100682.31
2022-08-01T15:08:01.078Z,100675.84
2022-08-01T15:10:28.301Z,100670.94
2022-08-01T15:12:54.882Z,100665.50
2022-08-01T15:15:22.180Z,100661.94
2022-08-01T15:17:49.018Z,100665.31
2022-08-01T15:20:15.592Z,100659.31
2022-08-01T15:22:42.166Z,100664.97
2022-08-01T15:25:08.853Z,100664.34
2022-08-01T15:27:35.485Z,100643.06
2022-08-01T15:30:02.078Z,100647.66
2022-08-01T15:32:28.622Z,100651.22
2022-08-01T15:34:55.290Z,100651.88
2022-08-01T15:37:22.030Z,100642.66
2022-08-01T15:39:48.995Z,100651.50
2022-08-01T15:42:19.159Z,100634.38
2022-08-01T15:44:50.297Z,100638.75
2022-08-01T15:47:16.873Z,100625.78
2022-08-01T15:49:43.508Z,100621.59
2022-08-01T15:52:21.751Z,100633.63
2022-08-01T15:54:49.426Z,100622.00
2022-08-01T15:57:15.998Z,100616.06
2022-08-01T15:59:42.594Z,100618.66
2022-08-01T16:02:09.518Z,100615.28
2022-08-01T16:04:36.607Z,100615.81
2022-08-01T16:07:06.325Z,100607.16
2022-08-01T16:09:32.963Z,100602.28
2022-08-01T16:11:59.545Z,100611.66
2022-08-01T16:14:26.134Z,100611.88
2022-08-01T16:16:55.086Z,100601.19
2022-08-01T16:19:21.989Z,100596.47
2022-08-01T16:21:48.644Z,100593.91
2022-08-01T16:24:15.262Z,100593.19
2022-08-01T16:26:43.239Z,100593.59
2022-08-01T16:29:09.918Z,100593.00
2022-08-01T16:31:50.106Z,100596.03
2022-08-01T16:34:23.621Z,100582.81
2022-08-01T16:36:50.476Z,100583.47
2022-08-01T16:39:22.471Z,100578.91
2022-08-01T16:41:49.966Z,100585.72
2022-08-01T16:44:33.337Z,100586.25
2022-08-01T16:47:01.604Z,100589.22
2022-08-01T16:49:28.325Z,100587.34
2022-08-01T16:51:54.906Z,100580.69
2022-08-01T16:54:25.041Z,100590.06
2022-08-01T16:56:53.148Z,100596.88
2022-08-01T16:59:19.759Z,100579.94
2022-08-01T17:02:00.298Z,100577.44
2022-08-01T17:04:28.424Z,100580.22
2022-08-01T17:06:55.214Z,100577.44
2022-08-01T17:09:21.870Z,100577.72
2022-08-01T17:11:48.660Z,100557.31
2022-08-01T17:14:15.463Z,100560.94
2022-08-01T17:16:42.079Z,100560.00
2022-08-01T17:19:08.873Z,100556.91
2022-08-01T17:21:36.397Z,100548.47
2022-08-01T17:24:05.622Z,100552.47
2022-08-01T17:26:32.261Z,100550.34
2022-08-01T17:28:58.851Z,100543.06
2022-08-01T17:31:25.439Z,100556.50
2022-08-01T17:33:55.016Z,100561.81
2022-08-01T17:36:22.163Z,100559.72
2022-08-01T17:38:48.883Z,100550.78
2022-08-01T17:41:15.648Z,100546.50
2022-08-01T17:43:42.334Z,100550.69
2022-08-01T17:46:08.906Z,100554.25
2022-08-01T17:48:35.597Z,100551.94
2022-08-01T17:51:02.224Z,100553.75
2022-08-01T17:53:29.503Z,100545.50
2022-08-01T17:55:58.766Z,100552.50
2022-08-01T17:58:49.599Z,100547.75
2022-08-01T18:01:13.443Z,100550.78
2022-08-01T18:03:40.985Z,100551.47
2022-08-01T18:06:08.270Z,100542.00
2022-08-01T18:08:36.928Z,100539.78
2022-08-01T18:11:03.619Z,100536.56
2022-08-01T18:13:30.184Z,100538.31
2022-08-01T18:15:59.658Z,100523.63
2022-08-01T18:18:32.746Z,100532.66
2022-08-01T18:21:01.185Z,100530.31
2022-08-01T18:23:27.799Z,100529.44
2022-08-01T18:25:54.618Z,100521.91
2022-08-01T18:28:31.492Z,100525.59
2022-08-01T18:31:00.681Z,100529.06
2022-08-01T18:33:27.325Z,100529.44
2022-08-01T18:35:54.502Z,100533.16
2022-08-01T18:38:24.005Z,100531.34
2022-08-01T18:40:51.430Z,100523.50
2022-08-01T18:43:18.005Z,100524.25
2022-08-01T18:45:44.611Z,100532.03
2022-08-01T18:48:11.705Z,100530.06
2022-08-01T18:50:39.502Z,100528.81
2022-08-01T18:53:06.066Z,100532.19
2022-08-01T18:55:32.672Z,100530.38
2022-08-01T18:57:59.258Z,100517.28
2022-08-01T19:00:25.804Z,100513.91
2022-08-01T19:02:53.185Z,100513.66
2022-08-01T19:05:19.861Z,100509.22
2022-08-01T19:08:05.846Z,100506.56
2022-08-01T19:10:34.248Z,100492.59
2022-08-01T19:13:01.487Z,100493.59
2022-08-01T19:15:28.015Z,100485.81
2022-08-01T19:17:54.632Z,100480.41
2022-08-01T19:20:21.229Z,100479.00
2022-08-01T19:22:57.017Z,100474.00
2022-08-01T19:25:24.465Z,100475.22
2022-08-01T19:27:51.304Z,100463.88
2022-08-01T19:30:18.773Z,100455.16
2022-08-01T19:32:47.088Z,100452.56
2022-08-01T19:35:15.240Z,100454.13
2022-08-01T19:37:46.022Z,100441.22
2022-08-01T19:40:27.817Z,100441.66
2022-08-01T19:42:55.314Z,100453.28
2022-08-01T19:45:22.660Z,100439.63
2022-08-01T19:47:51.963Z,100436.13
2022-08-01T19:50:24.035Z,100429.38
2022-08-01T19:52:52.055Z,100426.94
2022-08-01T19:55:19.121Z,100421.47
2022-08-01T19:57:59.258Z,100417.97
2022-08-01T20:00:34.290Z,100417.09
2022-08-01T20:03:01.336Z,100413.63
2022-08-01T20:05:28.098Z,100403.38
2022-08-01T20:07:54.837Z,100406.41
2022-08-01T20:10:21.583Z,100401.22
2022-08-01T20:12:49.022Z,100394.22
2022-08-01T20:15:16.277Z,100387.28
2022-08-01T20:17:42.879Z,100376.56
2022-08-01T20:20:10.379Z,100378.72
2022-08-01T20:22:37.016Z,100375.00
2022-08-01T20:25:04.261Z,100368.53
2022-08-01T20:27:31.486Z,100369.81
2022-08-01T20:30:00.341Z,100358.94
2022-08-01T20:32:29.530Z,100360.22
2022-08-01T20:34:56.895Z,100360.31
2022-08-01T20:38:03.901Z,100353.13
2022-08-01T20:40:12.617Z,100343.38
2022-08-01T20:42:40.281Z,100335.78
2022-08-01T20:45:07.363Z,100338.22
2022-08-01T20:47:33.941Z,100335.69
2022-08-01T20:50:26.883Z,100328.59
2022-08-01T20:52:53.893Z,100319.38
2022-08-01T20:55:20.583Z,100308.16
2022-08-01T20:57:50.105Z,100311.13
2022-08-01T21:00:20.398Z,100300.47
2022-08-01T21:02:54.415Z,100301.31
2022-08-01T21:05:41.174Z,100298.75
2022-08-01T21:08:17.667Z,100302.78
2022-08-01T21:10:45.988Z,100295.47
2022-08-01T21:13:21.270Z,100292.97
2022-08-01T21:16:22.519Z,100292.31
2022-08-01T21:19:10.038Z,100286.84
2022-08-01T21:21:39.619Z,100294.84
2022-08-01T21:24:10.565Z,100292.00
2022-08-01T21:26:37.213Z,100290.50
2022-08-01T21:29:06.089Z,100305.13
2022-08-01T21:31:40.312Z,100302.56
2022-08-01T21:34:08.317Z,100291.47
2022-08-01T21:36:35.857Z,100278.16
2022-08-01T21:39:04.404Z,100274.97
2022-08-01T21:42:05.032Z,100272.31
2022-08-01T21:44:28.764Z,100267.34
2022-08-01T21:46:58.639Z,100263.31
2022-08-01T21:49:25.332Z,100265.06
2022-08-01T21:51:56.394Z,100263.28
2022-08-01T21:54:29.223Z,100258.72
2022-08-01T21:56:55.765Z,100252.50
2022-08-01T21:59:40.974Z,100244.91
2022-08-01T22:02:17.914Z,100241.53
2022-08-01T22:04:58.287Z,100225.78
2022-08-01T22:07:26.225Z,100215.09
2022-08-01T22:09:53.695Z,100211.13
2022-08-01T22:12:20.802Z,100209.94
2022-08-01T22:14:48.963Z,100212.72
2022-08-01T22:17:19.686Z,100203.13
2022-08-01T22:19:49.589Z,100197.44
2022-08-01T22:22:50.179Z,100189.28
2022-08-01T22:25:07.875Z,100186.41
2022-08-01T22:28:08.948Z,100188.63
2022-08-01T22:30:21.505Z,100193.47
2022-08-01T22:33:15.425Z,100184.53
2022-08-01T22:35:35.727Z,100172.44
2022-08-01T22:38:06.487Z,100164.28
2022-08-01T22:40:34.109Z,100164.59
2022-08-01T22:43:02.930Z,100160.81
2022-08-01T22:45:40.642Z,100158.41
2022-08-01T22:48:19.561Z,100151.53
2022-08-01T22:51:06.571Z,100149.66
2022-08-01T22:53:41.989Z,100131.31
2022-08-01T22:56:09.399Z,100126.72
2022-08-01T22:58:36.135Z,100129.94
2022-08-01T23:01:03.108Z,100114.22
2022-08-01T23:03:32.895Z,100113.19
2022-08-01T23:06:03.619Z,100102.00
2022-08-01T23:08:33.739Z,100100.28
2022-08-01T23:11:01.405Z,100096.00
2022-08-01T23:13:29.582Z,100086.25
2022-08-01T23:16:00.112Z,100090.03
2022-08-01T23:18:27.498Z,100093.09
2022-08-01T23:20:57.962Z,100082.72
2022-08-01T23:23:30.667Z,100072.94
2022-08-01T23:25:58.581Z,100070.88
2022-08-01T23:28:25.884Z,100069.41
2022-08-01T23:30:52.978Z,100061.19
2022-08-01T23:33:19.566Z,100059.06
2022-08-01T23:35:46.133Z,100058.84
2022-08-01T23:38:15.126Z,100042.75
2022-08-01T23:40:41.745Z,100054.09
2022-08-01T23:43:16.151Z,100057.03
2022-08-01T23:46:03.382Z,100047.38
2022-08-01T23:48:30.824Z,100039.31
2022-08-01T23:50:57.550Z,100016.81
2022-08-01T23:53:24.353Z,100029.75
2022-08-01T23:55:57.987Z,100017.47
2022-08-01T23:58:24.585Z,99995.78
